Rockledge, FL

11:17 EDT je la 04an de julio 2015 (GMT -0400)
Indian River Club | | Change Station
CLOSE
Current Station
Personaj Veter-Stacioj
Location: Rockledge, FL
Alteco: 0 ft
Najbaraj veter-stacioj

Elev 0 ft 28.33 °N, 80.72 °W | Updated 3 seconds ago

Sennuba
Sennuba
83.8 °F
Sentas kiel 93 °F
N
4.0
Vento Varianta Vento from OrSOr
Gusts 5.0 mej/h

hodiaŭ
High -- | Low -- °F
--% Ebla precip.
hieraŭ
High -- | Low -- °F
Precip. -- co
6:30 AM 8:24 PM
Malkreskanta Lunĝibo, 92% visible
Aerpremo 30.16 co
Vidodistanco 10.0 mejloj
Nuboj Sennuba
Varmindico 93 °F
Rosopunkto 76 °F
Humido 78%
Pluvokvanto 0.00 co
Neĝprofundo Not available.
UV 11 out of 12
Pollen 2.90 out of 12
Aerkvalito Not available.
Flu Activity Not available.
METAR KCOF 041458Z AUTO 07006KT 10SM CLR 29/24 A3014 RMK AO2 SLP211 T02880239 52006

More Conditions Fewer Conditions

Aerpremo 30.16 co
Vidodistanco 10.0 mejloj
Nuboj Sennuba
Varmindico 93 °F
Rosopunkto 76 °F
Humido 78%
Pluvokvanto 0.00 co
Neĝprofundo Not available.
UV 11 out of 12
Pollen 2.90 out of 12
Aerkvalito Not available.
Flu Activity Not available.
METAR KCOF 041458Z AUTO 07006KT 10SM CLR 29/24 A3014 RMK AO2 SLP211 T02880239 52006

More Conditions Fewer Conditions

Nowcast | as of 6:30 am EDT on July 4, 2015

Scattered afternoon showers and storms near the coast...becoming numerous during the late afternoon and early evening inland Shower and thunderstorm activity is expected to be greater in coverage today than Friday as the East Coast sea breeze forms and gradually pushes inland during the afternoon and early evening. Storm coverage and intensity is expected to be a little higher over the interior counties...with strong wind gusts of 50 to 60 mph...frequent lightning...torrential rainfall...and hail possible in the stronger storms. Whether you plan on attending any of the numerous outdoor public events planned for this afternoon and evening...or have your own outdoor activities or festivities planned...be especially weather aware today as rain chances are 50 to 60 percent. Seek safe shelter indoors if skies begin to look threatening...or if you hear thunder. Additional details...including graphics are available online at: http://www.Srh.NOAA.Gov/mlb/blog.Php

×

10-Day Weather Forecast

×

Almanac

Astronomio

Jul. 04, 2015 Leviĝo Subiro
Aktuala tempo
Civila krepusko
Naŭtika krepusko
Astronomia krepusko
Luno
Daŭro de videbla lumo
Daŭro de tago
Tomorrow will be .
, % of the Moon is Illuminated

Hodiaŭaj ekstremaĵoj

State Highs State Lows

Community

WunderPhotos

Upload Photos

1,834,986 photos uploaded!

WunderBlogs® & News

Nearby

Aerkvalito

  Aerkvalito Aerkvalita indico Poluanto
Not available.

Neĝa profundeco

Station Depth Alteco

Earthquake Activity

Urbo Distance Mag. Time & Date
Minimum magnitude displayed is 2.5.

Coastal Water Temperatures

Loko Temperaturo

Stations

Najbaraj veter-stacioj

Loko de stacio Temp Venta
kvazaŭtemperaturo
Rosopunkto Humido Vento Precip. Elev Ĝisdatigita je Tipo